sensor_id;sensor_type;location;lat;lon;timestamp;P1;durP1;ratioP1;P2;durP2;ratioP2
58808;SDS011;44579;51.672;7.834;2023-09-08T00:00:00;8.65;;;4.90;;
58808;SDS011;44579;51.672;7.834;2023-09-08T00:02:29;10.50;;;4.55;;
58808;SDS011;44579;51.672;7.834;2023-09-08T00:04:56;10.77;;;4.80;;
58808;SDS011;44579;51.672;7.834;2023-09-08T00:07:23;7.63;;;4.68;;
58808;SDS011;44579;51.672;7.834;2023-09-08T00:09:50;9.50;;;4.78;;
58808;SDS011;44579;51.672;7.834;2023-09-08T00:12:17;10.32;;;4.97;;
58808;SDS011;44579;51.672;7.834;2023-09-08T00:14:44;9.82;;;4.90;;
58808;SDS011;44579;51.672;7.834;2023-09-08T00:17:11;14.40;;;4.85;;
58808;SDS011;44579;51.672;7.834;2023-09-08T00:19:38;6.72;;;4.78;;
58808;SDS011;44579;51.672;7.834;2023-09-08T00:22:05;7.30;;;4.95;;
58808;SDS011;44579;51.672;7.834;2023-09-08T00:24:33;8.07;;;5.22;;
58808;SDS011;44579;51.672;7.834;2023-09-08T00:27:00;10.30;;;4.93;;
58808;SDS011;44579;51.672;7.834;2023-09-08T00:29:28;9.05;;;5.43;;
58808;SDS011;44579;51.672;7.834;2023-09-08T00:31:55;16.25;;;5.43;;
58808;SDS011;44579;51.672;7.834;2023-09-08T00:34:22;10.98;;;5.35;;
58808;SDS011;44579;51.672;7.834;2023-09-08T00:36:49;7.90;;;4.93;;
58808;SDS011;44579;51.672;7.834;2023-09-08T00:39:17;5.90;;;4.95;;
58808;SDS011;44579;51.672;7.834;2023-09-08T00:41:45;8.02;;;5.53;;
58808;SDS011;44579;51.672;7.834;2023-09-08T00:44:12;13.00;;;5.30;;
58808;SDS011;44579;51.672;7.834;2023-09-08T00:49:09;10.43;;;5.00;;
58808;SDS011;44579;51.672;7.834;2023-09-08T00:51:38;11.68;;;5.78;;
58808;SDS011;44579;51.672;7.834;2023-09-08T00:54:05;9.40;;;5.50;;
58808;SDS011;44579;51.672;7.834;2023-09-08T00:56:34;9.15;;;5.70;;
58808;SDS011;44579;51.672;7.834;2023-09-08T00:59:04;11.07;;;6.18;;
58808;SDS011;44579;51.672;7.834;2023-09-08T01:04:01;9.00;;;6.50;;
58808;SDS011;44579;51.672;7.834;2023-09-08T01:06:29;8.85;;;5.65;;
58808;SDS011;44579;51.672;7.834;2023-09-08T01:08:59;8.07;;;5.90;;
58808;SDS011;44579;51.672;7.834;2023-09-08T01:11:26;9.60;;;6.05;;
58808;SDS011;44579;51.672;7.834;2023-09-08T01:13:53;11.43;;;6.18;;
58808;SDS011;44579;51.672;7.834;2023-09-08T01:16:20;11.02;;;6.45;;
58808;SDS011;44579;51.672;7.834;2023-09-08T01:18:48;9.52;;;6.40;;
58808;SDS011;44579;51.672;7.834;2023-09-08T01:27:14;12.13;;;6.38;;
58808;SDS011;44579;51.672;7.834;2023-09-08T01:29:45;10.82;;;7.10;;
58808;SDS011;44579;51.672;7.834;2023-09-08T01:32:13;10.25;;;6.45;;
58808;SDS011;44579;51.672;7.834;2023-09-08T01:34:40;10.13;;;6.32;;
58808;SDS011;44579;51.672;7.834;2023-09-08T01:37:08;10.98;;;6.90;;
58808;SDS011;44579;51.672;7.834;2023-09-08T01:39:35;11.70;;;6.68;;
58808;SDS011;44579;51.672;7.834;2023-09-08T01:42:02;12.15;;;7.15;;
58808;SDS011;44579;51.672;7.834;2023-09-08T01:46:57;11.80;;;6.82;;
58808;SDS011;44579;51.672;7.834;2023-09-08T01:49:24;10.48;;;6.82;;
58808;SDS011;44579;51.672;7.834;2023-09-08T01:51:51;11.50;;;7.30;;
58808;SDS011;44579;51.672;7.834;2023-09-08T01:54:19;9.80;;;6.47;;
58808;SDS011;44579;51.672;7.834;2023-09-08T01:56:46;10.35;;;7.05;;
58808;SDS011;44579;51.672;7.834;2023-09-08T01:59:13;14.07;;;7.28;;
58808;SDS011;44579;51.672;7.834;2023-09-08T02:01:40;14.30;;;6.65;;
58808;SDS011;44579;51.672;7.834;2023-09-08T02:04:07;14.75;;;6.65;;
58808;SDS011;44579;51.672;7.834;2023-09-08T02:06:34;14.90;;;6.72;;
58808;SDS011;44579;51.672;7.834;2023-09-08T02:09:01;14.40;;;7.07;;
58808;SDS011;44579;51.672;7.834;2023-09-08T02:11:28;11.15;;;7.32;;
58808;SDS011;44579;51.672;7.834;2023-09-08T02:13:55;12.40;;;6.80;;
58808;SDS011;44579;51.672;7.834;2023-09-08T02:16:24;10.55;;;6.95;;
58808;SDS011;44579;51.672;7.834;2023-09-08T02:18:51;12.32;;;7.03;;
58808;SDS011;44579;51.672;7.834;2023-09-08T02:21:18;10.65;;;6.35;;
58808;SDS011;44579;51.672;7.834;2023-09-08T02:23:45;17.17;;;7.05;;
58808;SDS011;44579;51.672;7.834;2023-09-08T02:26:12;19.08;;;7.35;;
58808;SDS011;44579;51.672;7.834;2023-09-08T02:28:39;14.13;;;6.50;;
58808;SDS011;44579;51.672;7.834;2023-09-08T02:31:06;9.23;;;7.13;;
58808;SDS011;44579;51.672;7.834;2023-09-08T02:33:33;19.00;;;7.63;;
58808;SDS011;44579;51.672;7.834;2023-09-08T02:36:04;12.18;;;7.22;;
58808;SDS011;44579;51.672;7.834;2023-09-08T02:38:36;12.10;;;6.82;;
58808;SDS011;44579;51.672;7.834;2023-09-08T02:41:05;11.55;;;7.03;;
58808;SDS011;44579;51.672;7.834;2023-09-08T02:43:39;9.50;;;7.03;;
58808;SDS011;44579;51.672;7.834;2023-09-08T02:46:06;10.95;;;7.35;;
58808;SDS011;44579;51.672;7.834;2023-09-08T02:48:35;12.98;;;7.63;;
58808;SDS011;44579;51.672;7.834;2023-09-08T02:51:02;12.00;;;6.38;;
58808;SDS011;44579;51.672;7.834;2023-09-08T02:53:30;11.43;;;7.05;;
58808;SDS011;44579;51.672;7.834;2023-09-08T02:55:57;11.18;;;6.85;;
58808;SDS011;44579;51.672;7.834;2023-09-08T02:58:25;10.93;;;7.20;;
58808;SDS011;44579;51.672;7.834;2023-09-08T03:00:53;10.82;;;6.60;;
58808;SDS011;44579;51.672;7.834;2023-09-08T03:03:20;10.05;;;6.50;;
58808;SDS011;44579;51.672;7.834;2023-09-08T03:05:49;12.48;;;7.13;;
58808;SDS011;44579;51.672;7.834;2023-09-08T03:08:23;9.60;;;6.50;;
58808;SDS011;44579;51.672;7.834;2023-09-08T03:10:54;9.20;;;6.45;;
58808;SDS011;44579;51.672;7.834;2023-09-08T03:13:23;10.73;;;6.63;;
58808;SDS011;44579;51.672;7.834;2023-09-08T03:15:50;9.45;;;6.28;;
58808;SDS011;44579;51.672;7.834;2023-09-08T03:18:17;10.05;;;6.60;;
58808;SDS011;44579;51.672;7.834;2023-09-08T03:20:47;9.23;;;6.65;;
58808;SDS011;44579;51.672;7.834;2023-09-08T03:23:15;11.18;;;6.68;;
58808;SDS011;44579;51.672;7.834;2023-09-08T03:30:38;9.13;;;6.53;;
58808;SDS011;44579;51.672;7.834;2023-09-08T03:35:46;18.90;;;7.65;;
58808;SDS011;44579;51.672;7.834;2023-09-08T03:43:15;11.13;;;7.78;;
58808;SDS011;44579;51.672;7.834;2023-09-08T03:48:10;13.15;;;7.28;;
58808;SDS011;44579;51.672;7.834;2023-09-08T03:50:37;9.52;;;7.18;;
58808;SDS011;44579;51.672;7.834;2023-09-08T03:53:04;13.05;;;7.65;;
58808;SDS011;44579;51.672;7.834;2023-09-08T03:55:31;10.55;;;7.18;;
58808;SDS011;44579;51.672;7.834;2023-09-08T03:57:58;10.27;;;7.10;;
58808;SDS011;44579;51.672;7.834;2023-09-08T04:00:25;9.30;;;6.78;;
58808;SDS011;44579;51.672;7.834;2023-09-08T04:02:53;12.38;;;7.25;;
58808;SDS011;44579;51.672;7.834;2023-09-08T04:05:20;11.18;;;7.03;;
58808;SDS011;44579;51.672;7.834;2023-09-08T04:07:47;10.98;;;6.68;;
58808;SDS011;44579;51.672;7.834;2023-09-08T04:10:16;13.80;;;7.50;;
58808;SDS011;44579;51.672;7.834;2023-09-08T04:12:44;11.98;;;6.85;;
58808;SDS011;44579;51.672;7.834;2023-09-08T04:15:14;9.02;;;7.15;;
58808;SDS011;44579;51.672;7.834;2023-09-08T04:18:42;11.05;;;7.05;;
58808;SDS011;44579;51.672;7.834;2023-09-08T04:23:37;11.82;;;7.20;;
58808;SDS011;44579;51.672;7.834;2023-09-08T04:26:03;10.07;;;7.43;;
58808;SDS011;44579;51.672;7.834;2023-09-08T04:28:31;16.92;;;7.43;;
58808;SDS011;44579;51.672;7.834;2023-09-08T04:30:58;11.68;;;6.97;;
58808;SDS011;44579;51.672;7.834;2023-09-08T04:33:25;12.75;;;7.72;;
58808;SDS011;44579;51.672;7.834;2023-09-08T04:38:20;10.80;;;7.38;;
58808;SDS011;44579;51.672;7.834;2023-09-08T04:40:47;16.60;;;8.38;;
58808;SDS011;44579;51.672;7.834;2023-09-08T04:43:15;12.02;;;7.70;;
58808;SDS011;44579;51.672;7.834;2023-09-08T04:45:43;10.13;;;7.60;;
58808;SDS011;44579;51.672;7.834;2023-09-08T04:48:10;11.45;;;7.53;;
58808;SDS011;44579;51.672;7.834;2023-09-08T04:50:38;11.30;;;7.93;;
58808;SDS011;44579;51.672;7.834;2023-09-08T04:53:07;9.50;;;7.40;;
58808;SDS011;44579;51.672;7.834;2023-09-08T04:55:34;17.38;;;8.55;;
58808;SDS011;44579;51.672;7.834;2023-09-08T04:58:03;9.88;;;7.35;;
58808;SDS011;44579;51.672;7.834;2023-09-08T05:00:31;12.18;;;7.78;;
58808;SDS011;44579;51.672;7.834;2023-09-08T05:03:00;14.05;;;6.97;;
58808;SDS011;44579;51.672;7.834;2023-09-08T05:05:28;16.40;;;7.10;;
58808;SDS011;44579;51.672;7.834;2023-09-08T05:07:55;10.80;;;6.88;;
58808;SDS011;44579;51.672;7.834;2023-09-08T05:10:24;9.88;;;7.38;;
58808;SDS011;44579;51.672;7.834;2023-09-08T05:12:54;19.08;;;8.27;;
58808;SDS011;44579;51.672;7.834;2023-09-08T05:15:23;11.77;;;8.07;;
58808;SDS011;44579;51.672;7.834;2023-09-08T05:17:53;13.32;;;7.68;;
58808;SDS011;44579;51.672;7.834;2023-09-08T05:20:22;12.95;;;7.82;;
58808;SDS011;44579;51.672;7.834;2023-09-08T05:22:49;10.27;;;6.88;;
58808;SDS011;44579;51.672;7.834;2023-09-08T05:25:20;10.98;;;7.38;;
58808;SDS011;44579;51.672;7.834;2023-09-08T05:27:51;11.60;;;7.45;;
58808;SDS011;44579;51.672;7.834;2023-09-08T05:30:18;9.93;;;6.85;;
58808;SDS011;44579;51.672;7.834;2023-09-08T05:32:51;18.13;;;7.90;;
58808;SDS011;44579;51.672;7.834;2023-09-08T05:35:19;13.57;;;7.68;;
58808;SDS011;44579;51.672;7.834;2023-09-08T05:37:48;10.95;;;7.32;;
58808;SDS011;44579;51.672;7.834;2023-09-08T05:42:44;12.88;;;7.45;;
58808;SDS011;44579;51.672;7.834;2023-09-08T05:45:12;16.67;;;8.23;;
58808;SDS011;44579;51.672;7.834;2023-09-08T05:47:43;12.52;;;7.65;;
58808;SDS011;44579;51.672;7.834;2023-09-08T05:50:13;13.55;;;7.32;;
58808;SDS011;44579;51.672;7.834;2023-09-08T05:52:44;18.88;;;8.73;;
58808;SDS011;44579;51.672;7.834;2023-09-08T05:55:11;16.77;;;7.10;;
58808;SDS011;44579;51.672;7.834;2023-09-08T05:57:39;12.00;;;7.80;;
58808;SDS011;44579;51.672;7.834;2023-09-08T06:00:08;13.13;;;7.63;;
58808;SDS011;44579;51.672;7.834;2023-09-08T06:02:41;11.48;;;6.95;;
58808;SDS011;44579;51.672;7.834;2023-09-08T06:05:12;14.35;;;7.60;;
58808;SDS011;44579;51.672;7.834;2023-09-08T06:08:15;18.27;;;7.15;;
58808;SDS011;44579;51.672;7.834;2023-09-08T06:10:43;14.90;;;7.00;;
58808;SDS011;44579;51.672;7.834;2023-09-08T06:13:11;24.33;;;6.85;;
58808;SDS011;44579;51.672;7.834;2023-09-08T06:15:40;11.80;;;7.15;;
58808;SDS011;44579;51.672;7.834;2023-09-08T06:18:11;12.30;;;6.55;;
58808;SDS011;44579;51.672;7.834;2023-09-08T06:20:46;16.75;;;6.78;;
58808;SDS011;44579;51.672;7.834;2023-09-08T06:23:15;15.85;;;7.18;;
58808;SDS011;44579;51.672;7.834;2023-09-08T06:25:42;15.80;;;6.88;;
58808;SDS011;44579;51.672;7.834;2023-09-08T06:28:09;9.75;;;6.50;;
58808;SDS011;44579;51.672;7.834;2023-09-08T06:30:37;11.45;;;7.07;;
58808;SDS011;44579;51.672;7.834;2023-09-08T06:33:09;11.77;;;6.78;;
58808;SDS011;44579;51.672;7.834;2023-09-08T06:35:36;10.80;;;5.65;;
58808;SDS011;44579;51.672;7.834;2023-09-08T06:38:04;9.90;;;5.57;;
58808;SDS011;44579;51.672;7.834;2023-09-08T06:40:32;11.05;;;5.97;;
58808;SDS011;44579;51.672;7.834;2023-09-08T06:45:48;26.40;;;7.53;;
58808;SDS011;44579;51.672;7.834;2023-09-08T06:48:16;10.73;;;5.95;;
58808;SDS011;44579;51.672;7.834;2023-09-08T06:50:46;20.42;;;6.90;;
58808;SDS011;44579;51.672;7.834;2023-09-08T06:53:27;11.02;;;6.15;;
58808;SDS011;44579;51.672;7.834;2023-09-08T06:55:58;7.40;;;5.50;;
58808;SDS011;44579;51.672;7.834;2023-09-08T07:03:22;12.73;;;6.25;;
58808;SDS011;44579;51.672;7.834;2023-09-08T07:05:51;17.77;;;6.80;;
58808;SDS011;44579;51.672;7.834;2023-09-08T07:12:31;13.63;;;6.53;;
58808;SDS011;44579;51.672;7.834;2023-09-08T07:20:29;13.00;;;6.03;;
58808;SDS011;44579;51.672;7.834;2023-09-08T07:23:11;11.20;;;7.22;;
58808;SDS011;44579;51.672;7.834;2023-09-08T07:25:58;12.75;;;6.97;;
58808;SDS011;44579;51.672;7.834;2023-09-08T07:28:35;11.43;;;7.15;;
58808;SDS011;44579;51.672;7.834;2023-09-08T07:31:09;12.07;;;6.28;;
58808;SDS011;44579;51.672;7.834;2023-09-08T07:33:41;15.43;;;6.97;;
58808;SDS011;44579;51.672;7.834;2023-09-08T07:36:21;18.05;;;6.90;;
58808;SDS011;44579;51.672;7.834;2023-09-08T07:38:59;22.05;;;6.32;;
58808;SDS011;44579;51.672;7.834;2023-09-08T07:41:33;22.60;;;6.40;;
58808;SDS011;44579;51.672;7.834;2023-09-08T07:44:05;14.10;;;6.20;;
58808;SDS011;44579;51.672;7.834;2023-09-08T07:46:33;14.52;;;6.85;;
58808;SDS011;44579;51.672;7.834;2023-09-08T07:49:03;12.57;;;6.65;;
58808;SDS011;44579;51.672;7.834;2023-09-08T07:51:46;15.38;;;6.75;;
58808;SDS011;44579;51.672;7.834;2023-09-08T07:54:27;8.48;;;6.22;;
58808;SDS011;44579;51.672;7.834;2023-09-08T07:59:29;13.32;;;6.18;;
58808;SDS011;44579;51.672;7.834;2023-09-08T08:01:56;7.88;;;5.28;;
58808;SDS011;44579;51.672;7.834;2023-09-08T08:04:38;18.40;;;6.32;;
58808;SDS011;44579;51.672;7.834;2023-09-08T08:07:21;10.07;;;5.63;;
58808;SDS011;44579;51.672;7.834;2023-09-08T08:10:00;10.75;;;5.53;;
58808;SDS011;44579;51.672;7.834;2023-09-08T08:15:08;11.10;;;5.82;;
58808;SDS011;44579;51.672;7.834;2023-09-08T08:18:17;10.60;;;5.20;;
58808;SDS011;44579;51.672;7.834;2023-09-08T08:24:31;11.75;;;5.45;;
58808;SDS011;44579;51.672;7.834;2023-09-08T08:27:04;10.02;;;6.20;;
58808;SDS011;44579;51.672;7.834;2023-09-08T08:29:39;9.82;;;5.15;;
58808;SDS011;44579;51.672;7.834;2023-09-08T08:32:09;10.38;;;5.90;;
58808;SDS011;44579;51.672;7.834;2023-09-08T08:37:47;16.90;;;6.05;;
58808;SDS011;44579;51.672;7.834;2023-09-08T08:42:45;11.45;;;6.07;;
58808;SDS011;44579;51.672;7.834;2023-09-08T08:45:23;9.70;;;5.07;;
58808;SDS011;44579;51.672;7.834;2023-09-08T08:47:52;10.95;;;6.07;;
58808;SDS011;44579;51.672;7.834;2023-09-08T08:50:20;12.48;;;5.75;;
58808;SDS011;44579;51.672;7.834;2023-09-08T08:52:50;10.13;;;5.10;;
58808;SDS011;44579;51.672;7.834;2023-09-08T08:55:22;11.75;;;5.75;;
58808;SDS011;44579;51.672;7.834;2023-09-08T09:05:29;14.43;;;6.00;;
58808;SDS011;44579;51.672;7.834;2023-09-08T09:08:21;9.60;;;5.05;;
58808;SDS011;44579;51.672;7.834;2023-09-08T09:11:09;21.38;;;5.18;;
58808;SDS011;44579;51.672;7.834;2023-09-08T09:13:46;12.88;;;5.07;;
58808;SDS011;44579;51.672;7.834;2023-09-08T09:16:18;28.50;;;5.60;;
58808;SDS011;44579;51.672;7.834;2023-09-08T09:18:53;9.50;;;4.85;;
58808;SDS011;44579;51.672;7.834;2023-09-08T09:21:44;20.25;;;6.00;;
58808;SDS011;44579;51.672;7.834;2023-09-08T09:24:34;12.77;;;5.63;;
58808;SDS011;44579;51.672;7.834;2023-09-08T09:27:04;12.73;;;5.45;;
58808;SDS011;44579;51.672;7.834;2023-09-08T09:29:48;21.08;;;6.07;;
58808;SDS011;44579;51.672;7.834;2023-09-08T09:32:22;11.18;;;5.43;;
58808;SDS011;44579;51.672;7.834;2023-09-08T09:35:10;14.27;;;4.88;;
58808;SDS011;44579;51.672;7.834;2023-09-08T09:37:40;11.45;;;5.70;;
58808;SDS011;44579;51.672;7.834;2023-09-08T09:42:38;14.55;;;6.35;;
58808;SDS011;44579;51.672;7.834;2023-09-08T09:45:09;18.77;;;6.13;;
58808;SDS011;44579;51.672;7.834;2023-09-08T09:47:37;14.65;;;4.57;;
58808;SDS011;44579;51.672;7.834;2023-09-08T09:50:08;17.95;;;5.68;;
58808;SDS011;44579;51.672;7.834;2023-09-08T09:52:36;20.00;;;5.97;;
58808;SDS011;44579;51.672;7.834;2023-09-08T09:55:08;10.43;;;5.07;;
58808;SDS011;44579;51.672;7.834;2023-09-08T09:57:50;7.65;;;4.65;;
58808;SDS011;44579;51.672;7.834;2023-09-08T10:00:21;13.27;;;5.10;;
58808;SDS011;44579;51.672;7.834;2023-09-08T10:02:51;10.88;;;5.13;;
58808;SDS011;44579;51.672;7.834;2023-09-08T10:05:26;13.93;;;5.57;;
58808;SDS011;44579;51.672;7.834;2023-09-08T10:07:56;8.55;;;5.25;;
58808;SDS011;44579;51.672;7.834;2023-09-08T10:10:34;11.20;;;5.85;;
58808;SDS011;44579;51.672;7.834;2023-09-08T10:13:06;8.82;;;5.32;;
58808;SDS011;44579;51.672;7.834;2023-09-08T10:15:37;9.00;;;5.45;;
58808;SDS011;44579;51.672;7.834;2023-09-08T10:18:15;10.90;;;5.07;;
58808;SDS011;44579;51.672;7.834;2023-09-08T10:24:04;10.35;;;4.55;;
58808;SDS011;44579;51.672;7.834;2023-09-08T10:30:51;10.50;;;5.03;;
58808;SDS011;44579;51.672;7.834;2023-09-08T10:37:01;9.63;;;4.75;;
58808;SDS011;44579;51.672;7.834;2023-09-08T10:39:37;11.98;;;5.53;;
58808;SDS011;44579;51.672;7.834;2023-09-08T10:42:21;11.02;;;5.85;;
58808;SDS011;44579;51.672;7.834;2023-09-08T10:46:23;9.27;;;4.80;;
58808;SDS011;44579;51.672;7.834;2023-09-08T10:48:53;8.00;;;4.40;;
58808;SDS011;44579;51.672;7.834;2023-09-08T10:51:26;11.43;;;5.03;;
58808;SDS011;44579;51.672;7.834;2023-09-08T10:53:59;10.98;;;4.65;;
58808;SDS011;44579;51.672;7.834;2023-09-08T10:56:48;11.15;;;4.75;;
58808;SDS011;44579;51.672;7.834;2023-09-08T10:59:28;20.05;;;4.95;;
58808;SDS011;44579;51.672;7.834;2023-09-08T11:02:08;8.95;;;4.50;;
58808;SDS011;44579;51.672;7.834;2023-09-08T11:05:59;12.25;;;4.43;;
58808;SDS011;44579;51.672;7.834;2023-09-08T11:08:27;15.43;;;5.05;;
58808;SDS011;44579;51.672;7.834;2023-09-08T11:11:12;11.13;;;4.88;;
58808;SDS011;44579;51.672;7.834;2023-09-08T11:13:55;9.93;;;4.65;;
58808;SDS011;44579;51.672;7.834;2023-09-08T11:16:27;10.40;;;5.03;;
58808;SDS011;44579;51.672;7.834;2023-09-08T11:19:06;11.52;;;4.97;;
58808;SDS011;44579;51.672;7.834;2023-09-08T11:21:52;8.18;;;4.50;;
58808;SDS011;44579;51.672;7.834;2023-09-08T11:27:38;11.07;;;3.65;;
58808;SDS011;44579;51.672;7.834;2023-09-08T11:30:14;12.27;;;4.60;;
58808;SDS011;44579;51.672;7.834;2023-09-08T11:32:50;7.15;;;4.68;;
58808;SDS011;44579;51.672;7.834;2023-09-08T11:35:17;9.55;;;4.10;;
58808;SDS011;44579;51.672;7.834;2023-09-08T11:37:50;9.77;;;4.30;;
58808;SDS011;44579;51.672;7.834;2023-09-08T11:40:28;12.95;;;4.38;;
58808;SDS011;44579;51.672;7.834;2023-09-08T11:43:04;7.82;;;4.65;;
58808;SDS011;44579;51.672;7.834;2023-09-08T11:45:36;15.57;;;3.70;;
58808;SDS011;44579;51.672;7.834;2023-09-08T11:48:06;12.73;;;3.80;;
58808;SDS011;44579;51.672;7.834;2023-09-08T11:50:34;18.35;;;4.13;;
58808;SDS011;44579;51.672;7.834;2023-09-08T11:53:11;12.18;;;4.03;;
58808;SDS011;44579;51.672;7.834;2023-09-08T11:55:38;11.85;;;4.25;;
58808;SDS011;44579;51.672;7.834;2023-09-08T11:58:08;18.77;;;4.25;;
58808;SDS011;44579;51.672;7.834;2023-09-08T12:00:47;10.90;;;4.70;;
58808;SDS011;44579;51.672;7.834;2023-09-08T12:03:29;6.40;;;3.20;;
58808;SDS011;44579;51.672;7.834;2023-09-08T12:06:25;10.65;;;4.05;;
58808;SDS011;44579;51.672;7.834;2023-09-08T12:09:03;8.82;;;4.15;;
58808;SDS011;44579;51.672;7.834;2023-09-08T12:11:33;9.38;;;3.88;;
58808;SDS011;44579;51.672;7.834;2023-09-08T12:14:06;6.47;;;3.40;;
58808;SDS011;44579;51.672;7.834;2023-09-08T12:16:41;8.40;;;2.95;;
58808;SDS011;44579;51.672;7.834;2023-09-08T12:19:31;8.93;;;3.67;;
58808;SDS011;44579;51.672;7.834;2023-09-08T12:21:59;9.30;;;3.72;;
58808;SDS011;44579;51.672;7.834;2023-09-08T12:24:55;8.30;;;3.03;;
58808;SDS011;44579;51.672;7.834;2023-09-08T12:27:37;11.13;;;3.53;;
58808;SDS011;44579;51.672;7.834;2023-09-08T12:30:24;6.20;;;3.38;;
58808;SDS011;44579;51.672;7.834;2023-09-08T12:35:52;6.78;;;4.13;;
58808;SDS011;44579;51.672;7.834;2023-09-08T12:38:20;8.07;;;3.95;;
58808;SDS011;44579;51.672;7.834;2023-09-08T12:40:50;8.32;;;3.47;;
58808;SDS011;44579;51.672;7.834;2023-09-08T12:46:37;8.13;;;3.60;;
58808;SDS011;44579;51.672;7.834;2023-09-08T12:49:14;8.18;;;3.70;;
58808;SDS011;44579;51.672;7.834;2023-09-08T12:51:48;6.30;;;3.35;;
58808;SDS011;44579;51.672;7.834;2023-09-08T12:54:15;8.27;;;3.30;;
58808;SDS011;44579;51.672;7.834;2023-09-08T12:56:49;6.45;;;3.53;;
58808;SDS011;44579;51.672;7.834;2023-09-08T12:59:17;6.20;;;3.65;;
58808;SDS011;44579;51.672;7.834;2023-09-08T13:01:45;5.85;;;3.50;;
58808;SDS011;44579;51.672;7.834;2023-09-08T13:04:19;9.15;;;3.58;;
58808;SDS011;44579;51.672;7.834;2023-09-08T13:06:55;10.18;;;3.72;;
58808;SDS011;44579;51.672;7.834;2023-09-08T13:09:48;8.57;;;3.42;;
58808;SDS011;44579;51.672;7.834;2023-09-08T13:12:22;9.95;;;3.65;;
58808;SDS011;44579;51.672;7.834;2023-09-08T13:14:53;7.78;;;3.60;;
58808;SDS011;44579;51.672;7.834;2023-09-08T13:22:06;7.20;;;3.67;;
58808;SDS011;44579;51.672;7.834;2023-09-08T13:27:43;5.75;;;2.67;;
58808;SDS011;44579;51.672;7.834;2023-09-08T13:30:11;5.68;;;3.05;;
58808;SDS011;44579;51.672;7.834;2023-09-08T13:32:39;5.93;;;3.25;;
58808;SDS011;44579;51.672;7.834;2023-09-08T13:35:08;9.00;;;3.15;;
58808;SDS011;44579;51.672;7.834;2023-09-08T13:37:35;4.85;;;3.08;;
58808;SDS011;44579;51.672;7.834;2023-09-08T13:40:06;5.97;;;2.90;;
58808;SDS011;44579;51.672;7.834;2023-09-08T13:45:42;4.13;;;2.50;;
58808;SDS011;44579;51.672;7.834;2023-09-08T13:48:27;7.63;;;3.60;;
58808;SDS011;44579;51.672;7.834;2023-09-08T13:51:04;4.40;;;2.70;;
58808;SDS011;44579;51.672;7.834;2023-09-08T13:53:32;4.43;;;2.97;;
58808;SDS011;44579;51.672;7.834;2023-09-08T13:56:12;6.07;;;3.17;;
58808;SDS011;44579;51.672;7.834;2023-09-08T14:01:54;6.95;;;3.15;;
58808;SDS011;44579;51.672;7.834;2023-09-08T14:04:48;7.15;;;2.70;;
58808;SDS011;44579;51.672;7.834;2023-09-08T14:07:29;3.97;;;2.50;;
58808;SDS011;44579;51.672;7.834;2023-09-08T14:09:59;6.90;;;2.60;;
58808;SDS011;44579;51.672;7.834;2023-09-08T14:12:45;4.88;;;3.20;;
58808;SDS011;44579;51.672;7.834;2023-09-08T14:15:18;3.67;;;2.58;;
58808;SDS011;44579;51.672;7.834;2023-09-08T14:17:45;3.88;;;2.75;;
58808;SDS011;44579;51.672;7.834;2023-09-08T14:20:19;4.75;;;2.58;;
58808;SDS011;44579;51.672;7.834;2023-09-08T14:22:56;7.68;;;2.90;;
58808;SDS011;44579;51.672;7.834;2023-09-08T14:25:35;3.92;;;2.60;;
58808;SDS011;44579;51.672;7.834;2023-09-08T14:28:04;17.30;;;3.80;;
58808;SDS011;44579;51.672;7.834;2023-09-08T14:30:36;5.07;;;2.65;;
58808;SDS011;44579;51.672;7.834;2023-09-08T14:33:23;7.75;;;2.40;;
58808;SDS011;44579;51.672;7.834;2023-09-08T14:36:18;6.40;;;2.90;;
58808;SDS011;44579;51.672;7.834;2023-09-08T14:38:49;3.63;;;2.50;;
58808;SDS011;44579;51.672;7.834;2023-09-08T14:41:48;6.40;;;2.70;;
58808;SDS011;44579;51.672;7.834;2023-09-08T14:44:27;24.83;;;3.47;;
58808;SDS011;44579;51.672;7.834;2023-09-08T14:53:32;3.90;;;2.53;;
58808;SDS011;44579;51.672;7.834;2023-09-08T14:56:00;3.35;;;2.55;;
58808;SDS011;44579;51.672;7.834;2023-09-08T14:59:01;4.28;;;2.60;;
58808;SDS011;44579;51.672;7.834;2023-09-08T15:01:34;6.30;;;2.83;;
58808;SDS011;44579;51.672;7.834;2023-09-08T15:04:12;4.20;;;2.50;;
58808;SDS011;44579;51.672;7.834;2023-09-08T15:11:36;2.50;;;2.00;;
58808;SDS011;44579;51.672;7.834;2023-09-08T15:14:25;3.63;;;2.10;;
58808;SDS011;44579;51.672;7.834;2023-09-08T15:17:10;6.78;;;2.25;;
58808;SDS011;44579;51.672;7.834;2023-09-08T15:19:41;4.50;;;2.40;;
58808;SDS011;44579;51.672;7.834;2023-09-08T15:22:12;4.25;;;2.30;;
58808;SDS011;44579;51.672;7.834;2023-09-08T15:24:47;6.18;;;2.30;;
58808;SDS011;44579;51.672;7.834;2023-09-08T15:27:21;6.72;;;2.22;;
58808;SDS011;44579;51.672;7.834;2023-09-08T15:32:43;5.95;;;2.15;;
58808;SDS011;44579;51.672;7.834;2023-09-08T15:35:50;3.78;;;2.20;;
58808;SDS011;44579;51.672;7.834;2023-09-08T15:41:51;14.68;;;4.07;;
58808;SDS011;44579;51.672;7.834;2023-09-08T15:44:39;4.88;;;3.63;;
58808;SDS011;44579;51.672;7.834;2023-09-08T15:47:18;5.03;;;2.60;;
58808;SDS011;44579;51.672;7.834;2023-09-08T15:53:28;4.88;;;2.42;;
58808;SDS011;44579;51.672;7.834;2023-09-08T15:55:56;5.97;;;2.67;;
58808;SDS011;44579;51.672;7.834;2023-09-08T16:07:38;4.15;;;2.33;;
58808;SDS011;44579;51.672;7.834;2023-09-08T16:10:05;5.60;;;2.67;;
58808;SDS011;44579;51.672;7.834;2023-09-08T16:12:40;3.15;;;2.13;;
58808;SDS011;44579;51.672;7.834;2023-09-08T16:15:11;7.20;;;2.50;;
58808;SDS011;44579;51.672;7.834;2023-09-08T16:17:38;6.00;;;2.38;;
58808;SDS011;44579;51.672;7.834;2023-09-08T16:23:22;8.15;;;3.03;;
58808;SDS011;44579;51.672;7.834;2023-09-08T16:25:49;16.13;;;3.25;;
58808;SDS011;44579;51.672;7.834;2023-09-08T16:28:27;3.92;;;2.47;;
58808;SDS011;44579;51.672;7.834;2023-09-08T16:30:55;4.18;;;2.30;;
58808;SDS011;44579;51.672;7.834;2023-09-08T16:33:22;9.38;;;2.42;;
58808;SDS011;44579;51.672;7.834;2023-09-08T16:36:21;3.30;;;2.30;;
58808;SDS011;44579;51.672;7.834;2023-09-08T16:39:22;3.35;;;2.35;;
58808;SDS011;44579;51.672;7.834;2023-09-08T16:41:54;8.73;;;2.13;;
58808;SDS011;44579;51.672;7.834;2023-09-08T16:44:22;5.88;;;2.40;;
58808;SDS011;44579;51.672;7.834;2023-09-08T16:47:31;7.03;;;2.67;;
58808;SDS011;44579;51.672;7.834;2023-09-08T16:50:11;5.45;;;2.60;;
58808;SDS011;44579;51.672;7.834;2023-09-08T16:53:35;6.22;;;2.47;;
58808;SDS011;44579;51.672;7.834;2023-09-08T16:56:13;9.57;;;2.72;;
58808;SDS011;44579;51.672;7.834;2023-09-08T17:02:02;5.60;;;2.63;;
58808;SDS011;44579;51.672;7.834;2023-09-08T17:08:03;7.60;;;2.65;;
58808;SDS011;44579;51.672;7.834;2023-09-08T17:10:36;3.95;;;2.75;;
58808;SDS011;44579;51.672;7.834;2023-09-08T17:16:28;9.52;;;2.63;;
58808;SDS011;44579;51.672;7.834;2023-09-08T17:19:02;11.43;;;2.83;;
58808;SDS011;44579;51.672;7.834;2023-09-08T17:21:58;18.27;;;3.10;;
58808;SDS011;44579;51.672;7.834;2023-09-08T17:27:42;4.75;;;2.78;;
58808;SDS011;44579;51.672;7.834;2023-09-08T17:30:35;4.50;;;3.20;;
58808;SDS011;44579;51.672;7.834;2023-09-08T17:33:18;6.80;;;3.47;;
58808;SDS011;44579;51.672;7.834;2023-09-08T17:35:58;13.00;;;3.38;;
58808;SDS011;44579;51.672;7.834;2023-09-08T17:38:48;4.45;;;3.13;;
58808;SDS011;44579;51.672;7.834;2023-09-08T17:41:31;6.70;;;3.58;;
58808;SDS011;44579;51.672;7.834;2023-09-08T17:43:59;8.00;;;3.50;;
58808;SDS011;44579;51.672;7.834;2023-09-08T17:46:33;15.57;;;5.15;;
58808;SDS011;44579;51.672;7.834;2023-09-08T17:49:10;6.50;;;4.50;;
58808;SDS011;44579;51.672;7.834;2023-09-08T17:57:31;6.13;;;3.72;;
58808;SDS011;44579;51.672;7.834;2023-09-08T18:03:30;6.20;;;3.22;;
58808;SDS011;44579;51.672;7.834;2023-09-08T18:05:58;7.22;;;3.67;;